createdAt,value
2022-12-08T04:50:59.534Z,54.21
2022-12-08T04:53:28.006Z,53.86
2022-12-08T04:55:55.953Z,53.94
2022-12-08T04:58:24.272Z,53.89
2022-12-08T05:00:52.133Z,53.97
2022-12-08T05:03:26.738Z,53.79
2022-12-08T05:05:56.445Z,53.60
2022-12-08T05:08:24.639Z,54.00
2022-12-08T05:10:53.023Z,54.11
2022-12-08T05:13:22.562Z,54.03
2022-12-08T05:15:50.416Z,53.92
2022-12-08T05:18:18.278Z,53.71
2022-12-08T05:20:46.671Z,53.87
2022-12-08T05:23:14.702Z,53.99
2022-12-08T05:25:43.651Z,54.06
2022-12-08T05:28:40.338Z,53.89
2022-12-08T05:30:59.722Z,53.74
2022-12-08T05:33:27.920Z,54.05
2022-12-08T05:35:56.068Z,53.81
2022-12-08T05:38:24.143Z,53.78
2022-12-08T05:40:51.985Z,53.97
2022-12-08T05:43:20.809Z,54.09
2022-12-08T05:45:48.899Z,54.00
2022-12-08T05:48:17.464Z,54.01
2022-12-08T05:50:51.001Z,53.54
2022-12-08T05:53:20.508Z,53.82
2022-12-08T05:55:49.505Z,53.83
2022-12-08T05:58:22.506Z,54.04
2022-12-08T06:00:51.755Z,53.91
2022-12-08T06:03:20.263Z,54.17
2022-12-08T06:05:48.653Z,53.89
2022-12-08T06:08:16.634Z,54.08
2022-12-08T06:10:46.318Z,53.74
2022-12-08T06:13:14.615Z,54.21
2022-12-08T06:15:42.811Z,53.87
2022-12-08T06:18:11.915Z,53.65
2022-12-08T06:20:39.882Z,54.14
2022-12-08T06:23:07.817Z,53.75
2022-12-08T06:25:35.900Z,53.74
2022-12-08T06:28:07.089Z,53.95
2022-12-08T06:30:35.560Z,53.87
2022-12-08T06:33:03.660Z,53.69
2022-12-08T06:35:31.681Z,53.94
2022-12-08T06:37:59.581Z,54.28
2022-12-08T06:40:27.594Z,53.62
2022-12-08T06:42:55.600Z,53.69
2022-12-08T06:45:23.740Z,54.03
2022-12-08T06:47:51.565Z,53.59
2022-12-08T06:50:19.928Z,53.66
2022-12-08T06:53:00.809Z,53.72
2022-12-08T06:55:57.859Z,53.89
2022-12-08T06:58:24.322Z,53.64
2022-12-08T07:00:52.527Z,53.85
2022-12-08T07:03:20.771Z,53.97
2022-12-08T07:05:49.057Z,54.23
2022-12-08T07:08:17.133Z,53.91
2022-12-08T07:10:45.478Z,53.52
2022-12-08T07:13:13.336Z,53.92
2022-12-08T07:15:41.182Z,53.80
2022-12-08T07:18:09.246Z,53.70
2022-12-08T07:20:37.470Z,53.59
2022-12-08T07:23:05.243Z,53.69
2022-12-08T07:25:33.220Z,53.73
2022-12-08T07:28:01.224Z,53.69
2022-12-08T07:30:29.378Z,54.10
2022-12-08T07:32:57.533Z,54.16
2022-12-08T07:35:25.511Z,54.09
2022-12-08T07:37:53.307Z,53.92
2022-12-08T07:40:22.183Z,53.96
2022-12-08T07:42:50.038Z,54.01
2022-12-08T07:45:18.095Z,54.09
2022-12-08T07:47:46.094Z,53.89
2022-12-08T07:50:14.114Z,53.78
2022-12-08T07:52:42.025Z,54.23
2022-12-08T07:55:10.663Z,53.58
2022-12-08T07:57:38.747Z,53.82
2022-12-08T08:00:10.858Z,54.05
2022-12-08T08:02:42.986Z,53.79
2022-12-08T08:05:12.348Z,53.82
2022-12-08T08:07:46.729Z,53.70
2022-12-08T08:10:14.773Z,54.31
2022-12-08T08:12:42.838Z,53.84
2022-12-08T08:15:11.847Z,54.30
2022-12-08T08:17:39.756Z,54.32
2022-12-08T08:20:08.504Z,54.32
2022-12-08T08:22:37.132Z,53.91
2022-12-08T08:25:05.696Z,54.13
2022-12-08T08:27:34.107Z,54.05
2022-12-08T08:30:06.139Z,54.56
2022-12-08T08:32:35.019Z,54.16
2022-12-08T08:35:05.727Z,53.93
2022-12-08T08:37:33.532Z,54.34
2022-12-08T08:40:01.834Z,54.06
2022-12-08T08:42:29.879Z,53.93
2022-12-08T08:44:57.825Z,53.98
2022-12-08T08:47:26.044Z,53.98
2022-12-08T08:49:55.362Z,54.00
2022-12-08T08:52:23.364Z,54.02
2022-12-08T08:54:51.151Z,53.97
2022-12-08T08:57:23.762Z,53.82
2022-12-08T08:59:54.304Z,53.70
2022-12-08T09:02:23.798Z,53.75
2022-12-08T09:04:52.373Z,53.76
2022-12-08T09:07:20.548Z,53.80
2022-12-08T09:09:48.597Z,53.82
2022-12-08T09:12:16.548Z,53.86
2022-12-08T09:14:45.967Z,53.83
2022-12-08T09:17:14.059Z,53.62
2022-12-08T09:19:43.850Z,53.71
2022-12-08T09:22:14.311Z,53.73
2022-12-08T09:24:44.893Z,53.96
2022-12-08T09:27:13.367Z,53.73
2022-12-08T09:29:41.531Z,54.15
2022-12-08T09:32:09.559Z,53.66
2022-12-08T09:34:37.531Z,53.97
2022-12-08T09:37:05.429Z,53.73
2022-12-08T09:39:36.291Z,53.68
2022-12-08T09:42:06.837Z,53.79
2022-12-08T09:45:16.521Z,53.83
2022-12-08T09:47:58.784Z,53.74
2022-12-08T09:50:55.831Z,53.61
2022-12-08T09:53:45.958Z,53.59
2022-12-08T09:56:24.745Z,53.50
2022-12-08T09:59:26.190Z,53.59
2022-12-08T10:01:55.447Z,53.64
2022-12-08T10:04:34.610Z,53.37
2022-12-08T10:07:33.046Z,53.32
2022-12-08T10:10:14.817Z,53.44
2022-12-08T10:13:11.659Z,53.62
2022-12-08T10:15:51.892Z,53.51
2022-12-08T10:18:27.150Z,53.47
2022-12-08T10:21:22.279Z,53.39
2022-12-08T10:23:56.681Z,53.50
2022-12-08T10:26:24.998Z,53.55
2022-12-08T10:28:53.128Z,53.24
2022-12-08T10:31:25.870Z,53.26
2022-12-08T10:34:17.598Z,53.05
2022-12-08T10:37:10.273Z,53.19
2022-12-08T10:39:46.925Z,53.08
2022-12-08T10:42:14.703Z,53.26
2022-12-08T10:45:17.725Z,53.55
2022-12-08T10:48:28.663Z,53.15
2022-12-08T10:50:59.909Z,53.70
2022-12-08T10:53:34.034Z,53.34
2022-12-08T10:56:04.699Z,53.49
2022-12-08T10:58:43.056Z,53.18
2022-12-08T11:01:32.893Z,53.03
2022-12-08T11:04:04.249Z,53.00
2022-12-08T11:06:41.256Z,52.86
2022-12-08T11:09:18.631Z,52.69
2022-12-08T11:11:59.894Z,52.61
2022-12-08T11:14:53.095Z,52.48
2022-12-08T11:17:27.062Z,52.62
2022-12-08T11:20:10.212Z,52.33
2022-12-08T11:22:43.815Z,52.17
2022-12-08T11:25:26.204Z,52.22
2022-12-08T11:28:00.761Z,52.15
2022-12-08T11:30:36.711Z,52.19
2022-12-08T11:33:26.775Z,51.95
2022-12-08T11:36:15.029Z,51.45
2022-12-08T11:38:49.225Z,51.80
2022-12-08T11:41:25.574Z,51.78
2022-12-08T11:44:05.770Z,51.62
2022-12-08T11:46:51.679Z,51.58
2022-12-08T11:49:20.990Z,51.89
2022-12-08T11:52:05.918Z,51.52
2022-12-08T11:54:46.906Z,51.50
2022-12-08T11:57:16.948Z,51.63
2022-12-08T11:59:53.296Z,51.66
2022-12-08T12:02:27.524Z,51.24
2022-12-08T12:06:13.036Z,51.35
2022-12-08T12:09:07.049Z,51.06
2022-12-08T12:12:13.593Z,51.03
2022-12-08T12:15:13.156Z,50.79
2022-12-08T12:18:26.523Z,50.69
2022-12-08T12:21:00.293Z,50.99
2022-12-08T12:23:52.152Z,50.81
2022-12-08T12:26:32.796Z,50.78
2022-12-08T12:29:19.275Z,50.53
2022-12-08T12:31:53.313Z,50.60
2022-12-08T12:34:43.512Z,50.35
2022-12-08T12:37:16.410Z,50.22
2022-12-08T12:39:53.211Z,50.33
2022-12-08T12:42:40.707Z,50.37
2022-12-08T12:45:17.879Z,50.14
2022-12-08T12:48:00.540Z,50.10
2022-12-08T12:50:46.946Z,49.49
2022-12-08T12:53:20.531Z,49.87
2022-12-08T12:56:02.448Z,49.97
2022-12-08T12:58:31.009Z,50.08
2022-12-08T13:01:14.114Z,49.87
2022-12-08T13:04:02.971Z,49.97
2022-12-08T13:06:50.452Z,49.87
2022-12-08T13:09:38.296Z,49.82
2022-12-08T13:12:23.040Z,49.70
2022-12-08T13:14:54.712Z,49.72
2022-12-08T13:17:34.847Z,49.64
2022-12-08T13:20:07.351Z,49.69
2022-12-08T13:22:54.443Z,49.33
2022-12-08T13:25:41.124Z,49.53
2022-12-08T13:28:28.134Z,49.26
2022-12-08T13:31:01.338Z,49.49
2022-12-08T13:33:40.599Z,49.35
2022-12-08T13:36:22.710Z,49.36
2022-12-08T13:38:58.055Z,49.30
2022-12-08T13:41:48.516Z,49.21
2022-12-08T13:47:59.625Z,49.37
2022-12-08T13:52:33.076Z,49.58
2022-12-08T13:57:04.030Z,49.52
2022-12-08T13:59:20.345Z,49.51
2022-12-08T14:01:51.968Z,49.25
2022-12-08T14:04:42.531Z,49.42
2022-12-08T14:07:12.841Z,49.45
2022-12-08T14:09:42.527Z,49.28
2022-12-08T14:12:46.741Z,49.20
2022-12-08T14:15:16.725Z,49.32
2022-12-08T14:17:54.452Z,49.09
2022-12-08T14:20:46.559Z,49.43
2022-12-08T14:23:22.878Z,49.38
2022-12-08T14:25:51.337Z,49.38
2022-12-08T14:28:22.443Z,49.34
2022-12-08T14:30:51.499Z,49.53
2022-12-08T14:33:21.131Z,49.49
2022-12-08T14:35:55.946Z,49.47
2022-12-08T14:38:26.437Z,49.45
2022-12-08T14:41:09.259Z,49.48
2022-12-08T14:43:37.784Z,49.49
2022-12-08T14:46:23.363Z,49.22
2022-12-08T14:48:52.229Z,49.59
2022-12-08T14:51:22.876Z,49.50
2022-12-08T14:54:09.574Z,49.69
2022-12-08T14:56:41.537Z,49.77
2022-12-08T14:59:39.202Z,49.30
2022-12-08T15:02:19.667Z,49.57
2022-12-08T15:04:55.305Z,49.53
2022-12-08T15:07:36.719Z,49.52
2022-12-08T15:10:25.691Z,49.53
2022-12-08T15:13:09.955Z,49.51
2022-12-08T15:15:58.277Z,49.42
2022-12-08T15:18:39.882Z,49.58
2022-12-08T15:21:10.153Z,49.60
2022-12-08T15:23:50.770Z,49.31
2022-12-08T15:26:25.220Z,49.52
2022-12-08T15:28:55.235Z,49.64
2022-12-08T15:31:23.629Z,49.57
2022-12-08T15:33:52.328Z,49.54
2022-12-08T15:36:20.866Z,49.51
2022-12-08T15:38:49.547Z,49.69
2022-12-08T15:41:17.717Z,49.58
2022-12-08T15:43:46.839Z,49.36
2022-12-08T15:46:15.191Z,49.38
2022-12-08T15:48:43.864Z,49.60
2022-12-08T15:51:12.413Z,49.44
2022-12-08T15:53:40.567Z,49.43
2022-12-08T15:58:58.105Z,49.31
2022-12-08T16:01:27.689Z,49.37
2022-12-08T16:09:47.191Z,49.25
2022-12-08T16:13:40.253Z,49.15
2022-12-08T16:18:25.799Z,49.12
2022-12-08T16:23:44.599Z,49.04
2022-12-08T16:27:35.161Z,49.04
2022-12-08T16:29:21.689Z,49.06
2022-12-08T16:31:50.794Z,49.06
2022-12-08T16:34:18.752Z,48.92
2022-12-08T16:36:47.710Z,49.01
2022-12-08T16:39:32.122Z,48.96
2022-12-08T16:42:19.972Z,48.97
2022-12-08T16:44:48.244Z,48.94
2022-12-08T16:47:16.443Z,48.87
2022-12-08T16:49:47.421Z,48.97
2022-12-08T16:52:16.833Z,48.79
2022-12-08T16:54:45.183Z,48.75
2022-12-08T16:57:13.888Z,49.01
2022-12-08T16:59:43.588Z,49.08
2022-12-08T17:02:16.300Z,48.65
2022-12-08T17:04:45.172Z,48.69
2022-12-08T17:07:13.731Z,48.68
2022-12-08T17:09:41.879Z,48.63
2022-12-08T17:12:12.100Z,48.63
2022-12-08T17:14:43.219Z,48.62
2022-12-08T17:17:11.367Z,48.45
2022-12-08T17:19:39.626Z,48.49
2022-12-08T17:22:08.770Z,48.58
2022-12-08T17:24:38.398Z,48.67
2022-12-08T17:27:06.778Z,48.50
2022-12-08T17:29:35.273Z,48.66
2022-12-08T17:32:03.769Z,48.69
2022-12-08T17:34:33.381Z,48.65
2022-12-08T17:37:02.647Z,48.67
2022-12-08T17:39:31.212Z,48.58
2022-12-08T17:42:00.949Z,48.55
2022-12-08T17:44:29.284Z,48.41
2022-12-08T17:46:57.164Z,48.46
2022-12-08T17:49:29.991Z,48.59
2022-12-08T17:52:01.602Z,48.47
2022-12-08T17:54:29.977Z,48.58
2022-12-08T17:56:59.323Z,48.46
2022-12-08T17:59:29.285Z,48.27
2022-12-08T18:01:59.340Z,48.50
2022-12-08T18:04:29.880Z,48.55
2022-12-08T18:07:00.582Z,48.61
2022-12-08T18:09:31.313Z,48.35
2022-12-08T18:11:59.971Z,48.44
2022-12-08T18:14:28.800Z,48.46
2022-12-08T18:16:59.629Z,48.49
2022-12-08T18:19:28.300Z,48.56
2022-12-08T18:21:57.015Z,48.49
2022-12-08T18:24:26.012Z,48.31
2022-12-08T18:26:56.609Z,48.41
2022-12-08T18:29:25.145Z,48.41
2022-12-08T18:31:53.584Z,48.51
2022-12-08T18:34:22.557Z,48.40
2022-12-08T18:36:50.813Z,48.30
2022-12-08T18:39:27.274Z,48.27
2022-12-08T18:41:57.988Z,48.47
2022-12-08T18:44:35.242Z,48.42
2022-12-08T18:47:03.879Z,48.52
2022-12-08T18:49:32.926Z,48.35
2022-12-08T18:52:01.018Z,48.46
2022-12-08T18:54:57.760Z,48.49
2022-12-08T18:57:18.460Z,48.44
2022-12-08T18:59:47.559Z,48.66
2022-12-08T19:02:16.012Z,48.35
2022-12-08T19:04:44.801Z,48.46
2022-12-08T19:07:15.059Z,48.45
2022-12-08T19:09:43.773Z,48.51
2022-12-08T19:12:15.956Z,48.39
2022-12-08T19:14:44.434Z,48.44
2022-12-08T19:17:13.297Z,48.35
2022-12-08T19:19:41.243Z,48.43
2022-12-08T19:22:09.286Z,48.33
2022-12-08T19:24:37.459Z,48.18
2022-12-08T19:27:05.901Z,48.30
2022-12-08T19:29:34.304Z,48.47
2022-12-08T19:32:05.140Z,48.24
2022-12-08T19:34:33.463Z,48.44
2022-12-08T19:37:02.263Z,48.66
2022-12-08T19:39:50.074Z,48.42
2022-12-08T19:42:40.018Z,48.48
2022-12-08T19:45:19.464Z,48.44
2022-12-08T19:47:48.993Z,48.66
2022-12-08T19:50:36.661Z,48.43
2022-12-08T19:53:12.286Z,48.62
2022-12-08T19:55:41.915Z,48.56
2022-12-08T19:58:11.186Z,48.58
2022-12-08T20:00:43.415Z,48.56
2022-12-08T20:03:16.414Z,48.50
2022-12-08T20:05:45.242Z,48.55
2022-12-08T20:08:13.780Z,48.49
2022-12-08T20:10:45.449Z,48.16
2022-12-08T20:13:32.727Z,48.17
2022-12-08T20:16:00.905Z,48.15
2022-12-08T20:18:31.691Z,48.07
2022-12-08T20:21:00.547Z,48.21
2022-12-08T20:23:28.841Z,47.98
2022-12-08T20:25:57.466Z,47.81
2022-12-08T20:28:25.884Z,48.00
2022-12-08T20:30:54.121Z,48.04
2022-12-08T20:33:23.467Z,47.87
2022-12-08T20:36:05.153Z,47.54
2022-12-08T20:38:33.614Z,47.90
2022-12-08T20:41:01.601Z,47.91
2022-12-08T20:43:29.946Z,47.79
2022-12-08T20:45:59.039Z,47.75
2022-12-08T20:48:27.326Z,47.79
2022-12-08T20:50:55.635Z,47.82
2022-12-08T20:53:24.020Z,47.76
2022-12-08T20:55:52.750Z,48.03
2022-12-08T20:58:21.257Z,47.90
2022-12-08T21:00:50.236Z,47.95
2022-12-08T21:03:20.128Z,47.74
2022-12-08T21:05:51.152Z,47.71
2022-12-08T21:08:20.385Z,47.80
2022-12-08T21:10:56.026Z,47.83
2022-12-08T21:13:25.388Z,47.73
2022-12-08T21:15:54.094Z,47.83
2022-12-08T21:18:23.003Z,47.83
2022-12-08T21:20:52.241Z,47.72
2022-12-08T21:23:20.488Z,47.90
2022-12-08T21:25:49.102Z,48.01
2022-12-08T21:28:17.306Z,48.03
2022-12-08T21:30:45.999Z,47.77
2022-12-08T21:33:14.140Z,47.99
2022-12-08T21:35:42.489Z,47.91
2022-12-08T21:38:11.197Z,47.67
2022-12-08T21:40:39.618Z,47.56
2022-12-08T21:43:07.988Z,47.82
2022-12-08T21:45:36.468Z,47.81
2022-12-08T21:48:10.985Z,47.83
2022-12-08T21:50:40.490Z,47.70
2022-12-08T21:53:09.110Z,47.84
2022-12-08T21:55:37.307Z,47.90
2022-12-08T21:58:05.943Z,48.02
2022-12-08T22:00:34.567Z,48.01
2022-12-08T22:03:03.558Z,47.97
2022-12-08T22:05:32.537Z,48.04
2022-12-08T22:08:01.212Z,47.88
2022-12-08T22:10:29.276Z,48.00
2022-12-08T22:12:57.536Z,47.94
2022-12-08T22:15:29.806Z,48.04
2022-12-08T22:17:58.292Z,48.24
2022-12-08T22:20:26.742Z,48.02
2022-12-08T22:22:59.069Z,48.03
